sensor_id;sensor_type;location;lat;lon;timestamp;pressure;altitude;pressure_sealevel;temperature;humidity
71795;BME280;59641;45.188;5.712;2023-04-27T00:01:31;99225.59;;;19.17;39.09
71795;BME280;59641;45.188;5.712;2023-04-27T00:03:57;99234.84;;;19.16;38.81
71795;BME280;59641;45.188;5.712;2023-04-27T00:06:22;99234.31;;;19.14;39.07
71795;BME280;59641;45.188;5.712;2023-04-27T00:08:48;99225.91;;;19.10;39.13
71795;BME280;59641;45.188;5.712;2023-04-27T00:11:13;99224.56;;;19.08;39.20
71795;BME280;59641;45.188;5.712;2023-04-27T00:13:39;99216.94;;;19.05;39.55
71795;BME280;59641;45.188;5.712;2023-04-27T00:16:05;99219.94;;;19.03;39.45
71795;BME280;59641;45.188;5.712;2023-04-27T00:18:31;99224.59;;;19.03;39.20
71795;BME280;59641;45.188;5.712;2023-04-27T00:20:57;99213.69;;;18.98;39.88
71795;BME280;59641;45.188;5.712;2023-04-27T00:23:22;99210.19;;;18.97;39.79
71795;BME280;59641;45.188;5.712;2023-04-27T00:25:47;99209.94;;;18.93;39.88
71795;BME280;59641;45.188;5.712;2023-04-27T00:28:13;99212.91;;;18.92;40.34
71795;BME280;59641;45.188;5.712;2023-04-27T00:30:38;99213.47;;;18.89;39.87
71795;BME280;59641;45.188;5.712;2023-04-27T00:33:04;99203.19;;;18.86;40.26
71795;BME280;59641;45.188;5.712;2023-04-27T00:35:31;99201.53;;;18.85;40.29
71795;BME280;59641;45.188;5.712;2023-04-27T00:37:57;99195.56;;;18.83;39.82
71795;BME280;59641;45.188;5.712;2023-04-27T00:40:22;99196.41;;;18.83;40.37
71795;BME280;59641;45.188;5.712;2023-04-27T00:42:48;99195.00;;;18.81;39.98
71795;BME280;59641;45.188;5.712;2023-04-27T00:45:13;99198.56;;;18.81;39.72
71795;BME280;59641;45.188;5.712;2023-04-27T00:47:38;99198.56;;;18.81;39.60
71795;BME280;59641;45.188;5.712;2023-04-27T00:50:04;99197.22;;;18.79;39.51
71795;BME280;59641;45.188;5.712;2023-04-27T00:52:33;99195.88;;;18.76;39.59
71795;BME280;59641;45.188;5.712;2023-04-27T00:55:02;99199.63;;;18.75;39.46
71795;BME280;59641;45.188;5.712;2023-04-27T00:57:28;99190.41;;;18.71;39.59
71795;BME280;59641;45.188;5.712;2023-04-27T00:59:53;99193.41;;;18.69;39.98
71795;BME280;59641;45.188;5.712;2023-04-27T01:02:19;99189.06;;;18.68;39.65
71795;BME280;59641;45.188;5.712;2023-04-27T01:04:44;99186.34;;;18.68;40.13
71795;BME280;59641;45.188;5.712;2023-04-27T01:07:10;99183.38;;;18.65;40.07
71795;BME280;59641;45.188;5.712;2023-04-27T01:09:35;99189.06;;;18.63;40.10
71795;BME280;59641;45.188;5.712;2023-04-27T01:12:00;99188.28;;;18.63;40.46
71795;BME280;59641;45.188;5.712;2023-04-27T01:14:27;99190.44;;;18.61;40.10
71795;BME280;59641;45.188;5.712;2023-04-27T01:16:52;99193.47;;;18.59;40.32
71795;BME280;59641;45.188;5.712;2023-04-27T01:19:18;99203.78;;;18.57;40.36
71795;BME280;59641;45.188;5.712;2023-04-27T01:21:43;99199.72;;;18.55;40.53
71795;BME280;59641;45.188;5.712;2023-04-27T01:24:09;99200.78;;;18.53;40.66
71795;BME280;59641;45.188;5.712;2023-04-27T01:26:34;99207.34;;;18.52;40.43
71795;BME280;59641;45.188;5.712;2023-04-27T01:29:00;99202.16;;;18.51;40.44
71795;BME280;59641;45.188;5.712;2023-04-27T01:31:25;99202.16;;;18.51;40.59
71795;BME280;59641;45.188;5.712;2023-04-27T01:33:50;99202.44;;;18.49;40.64
71795;BME280;59641;45.188;5.712;2023-04-27T01:36:16;99200.28;;;18.46;40.28
71795;BME280;59641;45.188;5.712;2023-04-27T01:38:41;99199.47;;;18.46;40.45
71795;BME280;59641;45.188;5.712;2023-04-27T01:41:08;99206.81;;;18.45;40.20
71795;BME280;59641;45.188;5.712;2023-04-27T01:43:34;99203.53;;;18.43;40.50
71795;BME280;59641;45.188;5.712;2023-04-27T01:46:08;99210.06;;;18.42;40.42
71795;BME280;59641;45.188;5.712;2023-04-27T01:48:34;99209.53;;;18.40;40.16
71795;BME280;59641;45.188;5.712;2023-04-27T01:51:00;99218.50;;;18.41;40.42
71795;BME280;59641;45.188;5.712;2023-04-27T01:53:26;99218.75;;;18.39;40.34
71795;BME280;59641;45.188;5.712;2023-04-27T01:55:51;99220.66;;;18.39;40.42
71795;BME280;59641;45.188;5.712;2023-04-27T01:58:16;99219.06;;;18.38;40.70
71795;BME280;59641;45.188;5.712;2023-04-27T02:00:42;99231.00;;;18.37;40.98
71795;BME280;59641;45.188;5.712;2023-04-27T02:03:07;99225.00;;;18.35;41.18
71795;BME280;59641;45.188;5.712;2023-04-27T02:05:32;99236.44;;;18.31;41.63
71795;BME280;59641;45.188;5.712;2023-04-27T02:07:58;99234.81;;;18.30;41.89
71795;BME280;59641;45.188;5.712;2023-04-27T02:10:23;99237.53;;;18.30;41.93
71795;BME280;59641;45.188;5.712;2023-04-27T02:12:49;99236.19;;;18.28;42.01
71795;BME280;59641;45.188;5.712;2023-04-27T02:15:14;99237.25;;;18.27;41.90
71795;BME280;59641;45.188;5.712;2023-04-27T02:17:40;99242.44;;;18.23;41.84
71795;BME280;59641;45.188;5.712;2023-04-27T02:20:06;99249.75;;;18.23;41.88
71795;BME280;59641;45.188;5.712;2023-04-27T02:22:31;99255.47;;;18.21;41.68
71795;BME280;59641;45.188;5.712;2023-04-27T02:24:57;99253.56;;;18.17;41.83
71795;BME280;59641;45.188;5.712;2023-04-27T02:27:23;99261.16;;;18.15;42.16
71795;BME280;59641;45.188;5.712;2023-04-27T02:29:48;99261.44;;;18.13;42.32
71795;BME280;59641;45.188;5.712;2023-04-27T02:32:14;99258.44;;;18.09;42.76
71795;BME280;59641;45.188;5.712;2023-04-27T02:34:39;99262.22;;;18.08;42.32
71795;BME280;59641;45.188;5.712;2023-04-27T02:37:05;99267.16;;;18.06;42.92
71795;BME280;59641;45.188;5.712;2023-04-27T02:39:31;99265.78;;;18.04;42.46
71795;BME280;59641;45.188;5.712;2023-04-27T02:41:56;99260.88;;;18.01;42.51
71795;BME280;59641;45.188;5.712;2023-04-27T02:44:21;99259.28;;;18.00;43.08
71795;BME280;59641;45.188;5.712;2023-04-27T02:46:47;99262.25;;;17.98;42.46
71795;BME280;59641;45.188;5.712;2023-04-27T02:49:12;99258.44;;;17.94;42.85
71795;BME280;59641;45.188;5.712;2023-04-27T02:51:37;99264.16;;;17.93;42.41
71795;BME280;59641;45.188;5.712;2023-04-27T02:54:03;99262.78;;;17.90;42.73
71795;BME280;59641;45.188;5.712;2023-04-27T02:56:28;99268.75;;;17.87;42.89
71795;BME280;59641;45.188;5.712;2023-04-27T02:58:54;99270.66;;;17.86;42.39
71795;BME280;59641;45.188;5.712;2023-04-27T03:01:20;99258.72;;;17.82;42.81
71795;BME280;59641;45.188;5.712;2023-04-27T03:03:46;99265.22;;;17.81;42.45
71795;BME280;59641;45.188;5.712;2023-04-27T03:06:12;99261.13;;;17.79;43.01
71795;BME280;59641;45.188;5.712;2023-04-27T03:08:37;99256.78;;;17.78;43.25
71795;BME280;59641;45.188;5.712;2023-04-27T03:11:02;99263.03;;;17.78;43.18
71795;BME280;59641;45.188;5.712;2023-04-27T03:13:28;99266.81;;;17.77;42.91
71795;BME280;59641;45.188;5.712;2023-04-27T03:15:53;99258.94;;;17.76;43.06
71795;BME280;59641;45.188;5.712;2023-04-27T03:18:19;99257.31;;;17.75;43.13
71795;BME280;59641;45.188;5.712;2023-04-27T03:20:44;99265.19;;;17.71;43.10
71795;BME280;59641;45.188;5.712;2023-04-27T03:23:10;99262.72;;;17.70;42.77
71795;BME280;59641;45.188;5.712;2023-04-27T03:25:36;99266.78;;;17.67;43.04
71795;BME280;59641;45.188;5.712;2023-04-27T03:28:01;99268.16;;;17.64;43.16
71795;BME280;59641;45.188;5.712;2023-04-27T03:30:27;99266.25;;;17.60;42.85
71795;BME280;59641;45.188;5.712;2023-04-27T03:32:52;99265.41;;;17.54;43.27
71795;BME280;59641;45.188;5.712;2023-04-27T03:35:18;99269.50;;;17.52;43.23
71795;BME280;59641;45.188;5.712;2023-04-27T03:37:44;99264.59;;;17.49;43.08
71795;BME280;59641;45.188;5.712;2023-04-27T03:40:10;99262.94;;;17.42;42.99
71795;BME280;59641;45.188;5.712;2023-04-27T03:42:36;99259.41;;;17.37;43.34
71795;BME280;59641;45.188;5.712;2023-04-27T03:45:02;99258.88;;;17.35;43.32
71795;BME280;59641;45.188;5.712;2023-04-27T03:47:27;99253.69;;;17.33;43.73
71795;BME280;59641;45.188;5.712;2023-04-27T03:49:53;99253.16;;;17.31;43.15
71795;BME280;59641;45.188;5.712;2023-04-27T03:52:18;99258.31;;;17.28;43.49
71795;BME280;59641;45.188;5.712;2023-04-27T03:54:43;99254.47;;;17.23;43.80
71795;BME280;59641;45.188;5.712;2023-04-27T03:57:09;99264.22;;;17.19;43.82
71795;BME280;59641;45.188;5.712;2023-04-27T03:59:34;99263.13;;;17.15;43.43
71795;BME280;59641;45.188;5.712;2023-04-27T04:02:00;99258.78;;;17.14;43.58
71795;BME280;59641;45.188;5.712;2023-04-27T04:04:26;99257.97;;;17.14;43.57
71795;BME280;59641;45.188;5.712;2023-04-27T04:06:51;99259.31;;;17.11;43.25
71795;BME280;59641;45.188;5.712;2023-04-27T04:09:17;99254.69;;;17.07;43.81
71795;BME280;59641;45.188;5.712;2023-04-27T04:11:42;99253.88;;;17.06;44.07
71795;BME280;59641;45.188;5.712;2023-04-27T04:14:07;99267.44;;;17.06;43.85
71795;BME280;59641;45.188;5.712;2023-04-27T04:16:33;99267.97;;;17.03;43.82
71795;BME280;59641;45.188;5.712;2023-04-27T04:18:58;99273.13;;;17.04;43.98
71795;BME280;59641;45.188;5.712;2023-04-27T04:21:23;99276.63;;;17.05;43.54
71795;BME280;59641;45.188;5.712;2023-04-27T04:23:49;99271.75;;;17.02;43.67
71795;BME280;59641;45.188;5.712;2023-04-27T04:26:14;99272.53;;;16.97;43.75
71795;BME280;59641;45.188;5.712;2023-04-27T04:28:40;99270.38;;;16.94;43.70
71795;BME280;59641;45.188;5.712;2023-04-27T04:31:06;99273.88;;;16.90;43.85
71795;BME280;59641;45.188;5.712;2023-04-27T04:33:33;99270.31;;;16.84;43.62
71795;BME280;59641;45.188;5.712;2023-04-27T04:36:02;99276.25;;;16.81;43.86
71795;BME280;59641;45.188;5.712;2023-04-27T04:38:28;99277.09;;;16.81;44.06
71795;BME280;59641;45.188;5.712;2023-04-27T04:40:53;99282.22;;;16.83;43.61
71795;BME280;59641;45.188;5.712;2023-04-27T04:43:19;99279.78;;;16.81;43.98
71795;BME280;59641;45.188;5.712;2023-04-27T04:45:45;99281.94;;;16.79;44.21
71795;BME280;59641;45.188;5.712;2023-04-27T04:48:13;99289.53;;;16.82;44.05
71795;BME280;59641;45.188;5.712;2023-04-27T04:50:38;99293.59;;;16.80;44.05
71795;BME280;59641;45.188;5.712;2023-04-27T04:53:06;99286.28;;;16.80;44.06
71795;BME280;59641;45.188;5.712;2023-04-27T04:55:31;99297.91;;;16.81;44.19
71795;BME280;59641;45.188;5.712;2023-04-27T04:57:56;99297.66;;;16.82;43.83
71795;BME280;59641;45.188;5.712;2023-04-27T05:00:21;99303.91;;;16.83;43.73
71795;BME280;59641;45.188;5.712;2023-04-27T05:02:47;99304.44;;;16.80;44.07
71795;BME280;59641;45.188;5.712;2023-04-27T05:05:12;99307.66;;;16.77;43.73
71795;BME280;59641;45.188;5.712;2023-04-27T05:07:38;99307.09;;;16.75;43.79
71795;BME280;59641;45.188;5.712;2023-04-27T05:10:03;99307.34;;;16.73;43.73
71795;BME280;59641;45.188;5.712;2023-04-27T05:12:29;99300.81;;;16.69;43.99
71795;BME280;59641;45.188;5.712;2023-04-27T05:14:55;99301.06;;;16.68;44.52
71795;BME280;59641;45.188;5.712;2023-04-27T05:17:20;99308.66;;;16.66;44.29
71795;BME280;59641;45.188;5.712;2023-04-27T05:19:45;99307.84;;;16.65;44.22
71795;BME280;59641;45.188;5.712;2023-04-27T05:22:11;99320.28;;;16.66;44.17
71795;BME280;59641;45.188;5.712;2023-04-27T05:24:36;99318.69;;;16.65;44.35
71795;BME280;59641;45.188;5.712;2023-04-27T05:27:01;99318.16;;;16.68;44.38
71795;BME280;59641;45.188;5.712;2023-04-27T05:29:27;99318.72;;;16.70;44.23
71795;BME280;59641;45.188;5.712;2023-04-27T05:31:53;99313.84;;;16.72;43.76
71795;BME280;59641;45.188;5.712;2023-04-27T05:34:18;99316.84;;;16.76;43.73
71795;BME280;59641;45.188;5.712;2023-04-27T05:36:44;99310.03;;;16.73;44.01
71795;BME280;59641;45.188;5.712;2023-04-27T05:39:11;99312.19;;;16.71;43.95
71795;BME280;59641;45.188;5.712;2023-04-27T05:41:36;99319.78;;;16.69;44.02
71795;BME280;59641;45.188;5.712;2023-04-27T05:44:02;99326.53;;;16.67;43.94
71795;BME280;59641;45.188;5.712;2023-04-27T05:46:27;99326.00;;;16.65;44.08
71795;BME280;59641;45.188;5.712;2023-04-27T05:48:53;99322.16;;;16.60;43.83
71795;BME280;59641;45.188;5.712;2023-04-27T05:51:18;99324.28;;;16.53;44.13
71795;BME280;59641;45.188;5.712;2023-04-27T05:53:43;99337.56;;;16.55;44.03
71795;BME280;59641;45.188;5.712;2023-04-27T05:56:09;99340.28;;;16.55;44.22
71795;BME280;59641;45.188;5.712;2023-04-27T05:58:36;99343.53;;;16.57;44.49
71795;BME280;59641;45.188;5.712;2023-04-27T06:01:01;99340.56;;;16.58;44.17
71795;BME280;59641;45.188;5.712;2023-04-27T06:03:28;99330.53;;;16.59;44.47
71795;BME280;59641;45.188;5.712;2023-04-27T06:05:55;99334.91;;;16.60;44.36
71795;BME280;59641;45.188;5.712;2023-04-27T06:08:21;99343.84;;;16.60;44.24
71795;BME280;59641;45.188;5.712;2023-04-27T06:10:46;99354.41;;;16.62;44.14
71795;BME280;59641;45.188;5.712;2023-04-27T06:13:11;99345.44;;;16.61;44.37
71795;BME280;59641;45.188;5.712;2023-04-27T06:15:37;99352.81;;;16.66;44.10
71795;BME280;59641;45.188;5.712;2023-04-27T06:18:02;99352.25;;;16.64;44.34
71795;BME280;59641;45.188;5.712;2023-04-27T06:20:27;99353.09;;;16.65;44.20
71795;BME280;59641;45.188;5.712;2023-04-27T06:22:53;99353.91;;;16.65;44.36
71795;BME280;59641;45.188;5.712;2023-04-27T06:25:18;99360.13;;;16.66;44.17
71795;BME280;59641;45.188;5.712;2023-04-27T06:27:44;99359.03;;;16.67;44.22
71795;BME280;59641;45.188;5.712;2023-04-27T06:30:10;99359.59;;;16.69;44.55
71795;BME280;59641;45.188;5.712;2023-04-27T06:32:35;99356.88;;;16.69;44.37
71795;BME280;59641;45.188;5.712;2023-04-27T06:35:00;99356.38;;;16.72;44.16
71795;BME280;59641;45.188;5.712;2023-04-27T06:37:26;99355.03;;;16.74;44.13
71795;BME280;59641;45.188;5.712;2023-04-27T06:39:51;99362.66;;;16.77;44.22
71795;BME280;59641;45.188;5.712;2023-04-27T06:42:16;99365.94;;;16.79;43.99
71795;BME280;59641;45.188;5.712;2023-04-27T06:44:42;99359.13;;;16.77;44.18
71795;BME280;59641;45.188;5.712;2023-04-27T06:47:07;99354.53;;;16.77;44.31
71795;BME280;59641;45.188;5.712;2023-04-27T06:49:33;99340.75;;;16.79;43.86
71795;BME280;59641;45.188;5.712;2023-04-27T06:52:00;99344.53;;;16.83;44.22
71795;BME280;59641;45.188;5.712;2023-04-27T06:54:26;99350.00;;;16.88;44.14
71795;BME280;59641;45.188;5.712;2023-04-27T06:56:51;99348.16;;;16.94;43.97
71795;BME280;59641;45.188;5.712;2023-04-27T06:59:19;99341.66;;;17.00;44.19
71795;BME280;59641;45.188;5.712;2023-04-27T07:01:45;99346.06;;;17.06;44.32
71795;BME280;59641;45.188;5.712;2023-04-27T07:04:11;99339.53;;;17.07;43.95
71795;BME280;59641;45.188;5.712;2023-04-27T07:06:36;99340.91;;;17.10;43.73
71795;BME280;59641;45.188;5.712;2023-04-27T07:09:02;99338.75;;;17.12;43.97
71795;BME280;59641;45.188;5.712;2023-04-27T07:11:30;99335.25;;;17.16;43.96
71795;BME280;59641;45.188;5.712;2023-04-27T07:13:55;99332.84;;;17.20;44.09
71795;BME280;59641;45.188;5.712;2023-04-27T07:16:21;99328.50;;;17.24;44.20
71795;BME280;59641;45.188;5.712;2023-04-27T07:18:46;99331.78;;;17.31;44.07
71795;BME280;59641;45.188;5.712;2023-04-27T07:21:11;99326.91;;;17.33;43.85
71795;BME280;59641;45.188;5.712;2023-04-27T07:23:38;99325.03;;;17.39;44.09
71795;BME280;59641;45.188;5.712;2023-04-27T07:26:04;99319.91;;;17.42;43.90
71795;BME280;59641;45.188;5.712;2023-04-27T07:28:30;99323.72;;;17.46;44.15
71795;BME280;59641;45.188;5.712;2023-04-27T07:30:55;99319.38;;;17.51;43.64
71795;BME280;59641;45.188;5.712;2023-04-27T07:33:22;99327.00;;;17.54;43.83
71795;BME280;59641;45.188;5.712;2023-04-27T07:35:47;99329.19;;;17.57;43.42
71795;BME280;59641;45.188;5.712;2023-04-27T07:38:15;99328.94;;;17.63;43.68
71795;BME280;59641;45.188;5.712;2023-04-27T07:40:41;99322.97;;;17.66;42.94
71795;BME280;59641;45.188;5.712;2023-04-27T07:43:07;99315.94;;;17.71;43.44
71795;BME280;59641;45.188;5.712;2023-04-27T07:45:33;99308.06;;;17.74;43.16
71795;BME280;59641;45.188;5.712;2023-04-27T07:48:03;99314.31;;;17.80;42.92
71795;BME280;59641;45.188;5.712;2023-04-27T07:50:29;99309.44;;;17.82;43.02
71795;BME280;59641;45.188;5.712;2023-04-27T07:52:55;99300.78;;;17.85;42.66
71795;BME280;59641;45.188;5.712;2023-04-27T07:55:22;99298.09;;;17.90;42.38
71795;BME280;59641;45.188;5.712;2023-04-27T07:57:48;99301.59;;;17.96;42.34
71795;BME280;59641;45.188;5.712;2023-04-27T08:00:14;99299.19;;;17.99;42.18
71795;BME280;59641;45.188;5.712;2023-04-27T08:02:40;99302.16;;;18.03;41.83
71795;BME280;59641;45.188;5.712;2023-04-27T08:05:05;99300.81;;;18.05;42.08
71795;BME280;59641;45.188;5.712;2023-04-27T08:07:33;99291.03;;;18.09;41.71
71795;BME280;59641;45.188;5.712;2023-04-27T08:09:58;99283.97;;;18.14;41.77
71795;BME280;59641;45.188;5.712;2023-04-27T08:12:23;99288.56;;;18.13;41.63
71795;BME280;59641;45.188;5.712;2023-04-27T08:14:49;99294.56;;;18.15;41.62
71795;BME280;59641;45.188;5.712;2023-04-27T08:17:14;99297.00;;;18.17;41.48
71795;BME280;59641;45.188;5.712;2023-04-27T08:19:42;99289.13;;;18.20;41.51
71795;BME280;59641;45.188;5.712;2023-04-27T08:22:09;99280.44;;;18.23;41.10
71795;BME280;59641;45.188;5.712;2023-04-27T08:24:34;99278.81;;;18.27;41.02
71795;BME280;59641;45.188;5.712;2023-04-27T08:27:00;99280.72;;;18.27;41.03
71795;BME280;59641;45.188;5.712;2023-04-27T08:29:27;99284.78;;;18.29;40.83
71795;BME280;59641;45.188;5.712;2023-04-27T08:31:53;99274.19;;;18.33;40.91
71795;BME280;59641;45.188;5.712;2023-04-27T08:34:18;99270.38;;;18.39;40.93
71795;BME280;59641;45.188;5.712;2023-04-27T08:36:44;99265.75;;;18.45;40.87
71795;BME280;59641;45.188;5.712;2023-04-27T08:39:09;99261.13;;;18.50;41.36
71795;BME280;59641;45.188;5.712;2023-04-27T08:41:35;99251.34;;;18.55;41.01
71795;BME280;59641;45.188;5.712;2023-04-27T08:44:00;99256.47;;;18.61;40.82
71795;BME280;59641;45.188;5.712;2023-04-27T08:46:26;99259.19;;;18.66;40.54
71795;BME280;59641;45.188;5.712;2023-04-27T08:48:52;99258.66;;;18.69;40.67
71795;BME280;59641;45.188;5.712;2023-04-27T08:51:18;99261.34;;;18.74;40.67
71795;BME280;59641;45.188;5.712;2023-04-27T08:53:47;99257.53;;;18.81;40.28
71795;BME280;59641;45.188;5.712;2023-04-27T08:56:13;99247.50;;;18.81;39.77
71795;BME280;59641;45.188;5.712;2023-04-27T08:58:39;99244.78;;;18.81;39.84
71795;BME280;59641;45.188;5.712;2023-04-27T09:01:05;99234.16;;;18.85;40.18
71795;BME280;59641;45.188;5.712;2023-04-27T09:03:32;99225.72;;;18.91;40.11
71795;BME280;59641;45.188;5.712;2023-04-27T09:05:59;99232.72;;;18.98;40.10
71795;BME280;59641;45.188;5.712;2023-04-27T09:08:24;99231.38;;;19.05;39.98
71795;BME280;59641;45.188;5.712;2023-04-27T09:10:50;99234.03;;;19.15;39.82
71795;BME280;59641;45.188;5.712;2023-04-27T09:13:17;99240.78;;;19.23;39.58
71795;BME280;59641;45.188;5.712;2023-04-27T09:15:43;99244.28;;;19.29;38.80
71795;BME280;59641;45.188;5.712;2023-04-27T09:18:22;99247.00;;;19.34;38.86
71795;BME280;59641;45.188;5.712;2023-04-27T09:20:52;99243.19;;;19.35;38.76
71795;BME280;59641;45.188;5.712;2023-04-27T09:25:52;99234.44;;;19.38;38.67
71795;BME280;59641;45.188;5.712;2023-04-27T09:28:19;99237.66;;;19.45;38.66
71795;BME280;59641;45.188;5.712;2023-04-27T09:30:54;99234.91;;;19.55;38.35
71795;BME280;59641;45.188;5.712;2023-04-27T09:35:49;99237.28;;;19.72;37.85
71795;BME280;59641;45.188;5.712;2023-04-27T09:38:17;99223.03;;;19.81;38.33
71795;BME280;59641;45.188;5.712;2023-04-27T09:40:43;99232.50;;;19.88;38.08
71795;BME280;59641;45.188;5.712;2023-04-27T09:43:08;99243.31;;;19.98;38.01
71795;BME280;59641;45.188;5.712;2023-04-27T09:45:34;99252.81;;;20.06;37.12
71795;BME280;59641;45.188;5.712;2023-04-27T09:48:03;99247.53;;;20.15;37.15
71795;BME280;59641;45.188;5.712;2023-04-27T09:50:30;99240.44;;;20.19;36.83
71795;BME280;59641;45.188;5.712;2023-04-27T09:52:55;99242.81;;;20.26;37.43
71795;BME280;59641;45.188;5.712;2023-04-27T09:55:29;99246.56;;;20.35;37.41
71795;BME280;59641;45.188;5.712;2023-04-27T09:58:36;99239.66;;;20.42;36.25
71795;BME280;59641;45.188;5.712;2023-04-27T10:06:51;99231.34;;;20.58;36.57
71795;BME280;59641;45.188;5.712;2023-04-27T10:09:21;99218.25;;;20.60;36.41
71795;BME280;59641;45.188;5.712;2023-04-27T10:11:52;99220.91;;;20.65;36.60
71795;BME280;59641;45.188;5.712;2023-04-27T10:14:19;99212.66;;;20.70;36.70
71795;BME280;59641;45.188;5.712;2023-04-27T10:16:53;99217.25;;;20.75;35.27
71795;BME280;59641;45.188;5.712;2023-04-27T10:19:23;99209.59;;;20.77;35.43
71795;BME280;59641;45.188;5.712;2023-04-27T10:22:01;99204.88;;;20.82;35.52
71795;BME280;59641;45.188;5.712;2023-04-27T10:24:36;99198.56;;;20.87;35.29
71795;BME280;59641;45.188;5.712;2023-04-27T10:27:06;99194.38;;;20.95;35.42
71795;BME280;59641;45.188;5.712;2023-04-27T10:29:43;99197.88;;;21.00;34.54
71795;BME280;59641;45.188;5.712;2023-04-27T10:32:27;99197.72;;;21.11;35.68
71795;BME280;59641;45.188;5.712;2023-04-27T10:35:07;99202.81;;;21.17;35.43
71795;BME280;59641;45.188;5.712;2023-04-27T10:37:42;99193.44;;;21.23;34.95
71795;BME280;59641;45.188;5.712;2023-04-27T10:40:10;99199.06;;;21.32;34.81
71795;BME280;59641;45.188;5.712;2023-04-27T10:42:42;99195.44;;;21.37;34.55
71795;BME280;59641;45.188;5.712;2023-04-27T10:45:08;99197.00;;;21.43;34.28
71795;BME280;59641;45.188;5.712;2023-04-27T10:47:39;99193.13;;;21.49;34.19
71795;BME280;59641;45.188;5.712;2023-04-27T10:50:06;99183.75;;;21.55;33.92
71795;BME280;59641;45.188;5.712;2023-04-27T10:52:32;99183.94;;;21.59;34.18
71795;BME280;59641;45.188;5.712;2023-04-27T10:55:19;99186.31;;;21.65;34.18
71795;BME280;59641;45.188;5.712;2023-04-27T10:57:49;99184.91;;;21.68;33.93
71795;BME280;59641;45.188;5.712;2023-04-27T11:00:38;99180.97;;;21.74;33.64
71795;BME280;59641;45.188;5.712;2023-04-27T11:03:15;99177.34;;;21.79;33.59
71795;BME280;59641;45.188;5.712;2023-04-27T11:05:43;99171.78;;;21.84;34.20
71795;BME280;59641;45.188;5.712;2023-04-27T11:08:11;99180.22;;;21.87;34.08
71795;BME280;59641;45.188;5.712;2023-04-27T11:10:39;99178.50;;;21.91;33.26
71795;BME280;59641;45.188;5.712;2023-04-27T11:13:13;99172.63;;;21.98;33.25
71795;BME280;59641;45.188;5.712;2023-04-27T11:15:42;99172.88;;;22.02;33.65
71795;BME280;59641;45.188;5.712;2023-04-27T11:18:08;99163.25;;;22.04;33.35
71795;BME280;59641;45.188;5.712;2023-04-27T11:20:33;99158.00;;;22.08;33.65
71795;BME280;59641;45.188;5.712;2023-04-27T11:22:58;99154.34;;;22.12;33.73
71795;BME280;59641;45.188;5.712;2023-04-27T11:25:27;99158.03;;;22.22;33.59
71795;BME280;59641;45.188;5.712;2023-04-27T11:27:53;99150.59;;;22.27;34.02
71795;BME280;59641;45.188;5.712;2023-04-27T11:30:20;99145.81;;;22.33;33.65
71795;BME280;59641;45.188;5.712;2023-04-27T11:32:46;99151.19;;;22.38;33.69
71795;BME280;59641;45.188;5.712;2023-04-27T11:35:12;99142.38;;;22.41;33.86
71795;BME280;59641;45.188;5.712;2023-04-27T11:37:37;99130.84;;;22.44;33.78
71795;BME280;59641;45.188;5.712;2023-04-27T11:40:03;99135.41;;;22.49;33.70
71795;BME280;59641;45.188;5.712;2023-04-27T11:42:29;99135.47;;;22.58;33.49
71795;BME280;59641;45.188;5.712;2023-04-27T11:44:59;99132.13;;;22.61;33.32
71795;BME280;59641;45.188;5.712;2023-04-27T11:47:30;99128.47;;;22.65;33.45
71795;BME280;59641;45.188;5.712;2023-04-27T11:49:58;99138.50;;;22.70;33.74
71795;BME280;59641;45.188;5.712;2023-04-27T11:52:47;99132.94;;;22.75;33.54
71795;BME280;59641;45.188;5.712;2023-04-27T11:55:12;99135.38;;;22.76;33.79
71795;BME280;59641;45.188;5.712;2023-04-27T11:57:40;99132.84;;;22.80;33.73
71795;BME280;59641;45.188;5.712;2023-04-27T12:00:06;99123.50;;;22.81;33.97
71795;BME280;59641;45.188;5.712;2023-04-27T12:02:35;99121.28;;;22.83;34.29
71795;BME280;59641;45.188;5.712;2023-04-27T12:05:02;99122.59;;;22.86;34.23
71795;BME280;59641;45.188;5.712;2023-04-27T12:07:27;99123.91;;;22.88;34.52
71795;BME280;59641;45.188;5.712;2023-04-27T12:09:52;99121.47;;;22.87;34.58
71795;BME280;59641;45.188;5.712;2023-04-27T12:12:20;99116.78;;;22.87;34.76
71795;BME280;59641;45.188;5.712;2023-04-27T12:14:49;99114.06;;;22.87;34.48
71795;BME280;59641;45.188;5.712;2023-04-27T12:17:15;99121.97;;;22.89;34.51
71795;BME280;59641;45.188;5.712;2023-04-27T12:19:41;99115.41;;;22.90;34.61
71795;BME280;59641;45.188;5.712;2023-04-27T12:22:06;99121.06;;;22.93;34.38
71795;BME280;59641;45.188;5.712;2023-04-27T12:24:32;99115.28;;;22.95;34.18
71795;BME280;59641;45.188;5.712;2023-04-27T12:26:58;99113.06;;;22.97;33.41
71795;BME280;59641;45.188;5.712;2023-04-27T12:29:24;99112.75;;;22.99;33.80
71795;BME280;59641;45.188;5.712;2023-04-27T12:31:49;99116.50;;;23.03;33.69
71795;BME280;59641;45.188;5.712;2023-04-27T12:34:16;99117.50;;;23.07;33.61
71795;BME280;59641;45.188;5.712;2023-04-27T12:36:41;99113.81;;;23.11;33.29
71795;BME280;59641;45.188;5.712;2023-04-27T12:39:17;99109.69;;;23.14;33.61
71795;BME280;59641;45.188;5.712;2023-04-27T12:41:45;99113.22;;;23.14;33.71
71795;BME280;59641;45.188;5.712;2023-04-27T12:44:11;99115.63;;;23.16;33.33
71795;BME280;59641;45.188;5.712;2023-04-27T12:46:40;99118.88;;;23.18;33.53
71795;BME280;59641;45.188;5.712;2023-04-27T12:49:07;99118.28;;;23.21;33.42
71795;BME280;59641;45.188;5.712;2023-04-27T12:51:33;99116.53;;;23.25;33.53
71795;BME280;59641;45.188;5.712;2023-04-27T12:53:59;99109.31;;;23.29;33.57
71795;BME280;59641;45.188;5.712;2023-04-27T12:56:25;99118.53;;;23.33;33.11
71795;BME280;59641;45.188;5.712;2023-04-27T12:58:51;99114.38;;;23.36;33.29
71795;BME280;59641;45.188;5.712;2023-04-27T13:01:16;99107.44;;;23.38;33.28
71795;BME280;59641;45.188;5.712;2023-04-27T13:03:42;99107.63;;;23.42;33.30
71795;BME280;59641;45.188;5.712;2023-04-27T13:06:11;99116.03;;;23.46;32.91
71795;BME280;59641;45.188;5.712;2023-04-27T13:08:36;99111.53;;;23.50;32.74